This is the latest recevied weather packets stored in our database for station/object LU5DTF-1. If no packets are shown the sender has not sent any weather packets the latest 10 day(s).
| Time | Temp. | Humidity | Pressure | Rain* | Wind** | Luminosity | Snow |
|---|---|---|---|---|---|---|---|
| 1778033402 | 15.56° C | 88% | 1015.4 hPa | 0 mm | - | - | - |
| 1778033102 | 15.56° C | 87% | 1015.3 hPa | 0 mm | - | - | - |
| 1778032502 | 15.56° C | 87% | 1015.4 hPa | 0 mm | - | - | - |
| 1778031902 | 15.56° C | 85% | 1015.5 hPa | 0 mm | - | - | - |
| 1778031302 | 15.56° C | 85% | 1015.4 hPa | 0 mm | - | - | - |
| 1778030702 | 15.56° C | 85% | 1015.2 hPa | 0 mm | - | - | - |
| 1778028902 | 15° C | 85% | 1015.2 hPa | 0 mm | - | - | - |
| 1778027702 | 15° C | 84% | 1015.1 hPa | 0 mm | - | - | - |
| 1778027402 | 15° C | 84% | 1015 hPa | 0 mm | - | - | - |
| 1778027102 | 15.56° C | 84% | 1014.9 hPa | 0 mm | - | - | - |
| 1778026802 | 15° C | 84% | 1014.9 hPa | 0 mm | - | - | - |
| 1778026502 | 15° C | 83% | 1014.8 hPa | 0 mm | - | - | - |
| 1778026202 | 15° C | 83% | 1014.7 hPa | 0 mm | - | - | - |
| 1778025302 | 15.56° C | 83% | 1014.6 hPa | 0 mm | - | - | - |
| 1778025002 | 15.56° C | 82% | 1014.6 hPa | 0 mm | - | - | - |
| 1778024102 | 15.56° C | 81% | 1014.4 hPa | 0 mm | - | - | - |
| 1778023802 | 15.56° C | 80% | 1014.4 hPa | 0 mm | - | - | - |
| 1778023502 | 15.56° C | 80% | 1014.4 hPa | 0 mm | - | - | - |
| 1778020502 | 16.11° C | 77% | 1014.2 hPa | 0 mm | - | - | - |
| 1778013301 | 17.22° C | 72% | 1013.8 hPa | 0 mm | - | - | - |
| 1778011502 | 17.22° C | 71% | 1013.7 hPa | 0 mm | - | - | - |
| 1778010302 | 17.78° C | 69% | 1013.6 hPa | 0 mm | - | - | - |
| 1778010001 | 17.78° C | 67% | 1013.4 hPa | 0 mm | - | - | - |
| 1778009701 | 17.78° C | 66% | 1013.4 hPa | 0 mm | - | - | - |
| 1778009401 | 17.78° C | 66% | 1013.6 hPa | 0 mm | - | - | - |
* Rain latest hour (hover to see other rain measurements)
** Current wind speed in m/s (hover to see current wind gust speed)